Terminal Aerodrome Forecast
Issued by NWS Hastings, NE

Home | Current Version | Previous Version | Text Only | Print | Product List | Glossary On
Versions: 1 2 3 4 5 6 7 8 9 10 11 12 13 14 15 16 17 18 19 20 21 22 23 24 25
000
FTUS43 KGID 290530
TAFGRI
TAF
KGRI 290530Z 2906/3006 34025G33KT P6SM OVC022
     FM290900 34024G32KT P6SM OVC015
     FM292000 34014G22KT P6SM SCT022
     FM292300 34010KT P6SM SKC=

USA.gov is the U.S. government's official web portal to all federal, state and local government web resources and services.